Data for 08/24/2009

Time Sea-Level Adjusted Pressure Absolute Pressure Temperature Relative Humidity Dew Point   
(mb) (inHg) (mb) (inHg) (C) (F) (%) (C) (F)
00:05 1017 30.03 846 24.98 12.8 55 92 11.5 52.7
00:10 1017 30.03 846 24.98 12.7 54.8 92 11.4 52.6
00:15 1017 30.03 846 24.98 12.7 54.8 92 11.4 52.5
00:20 1017 30.03 846 24.98 12.7 54.9 92 11.4 52.5
00:25 1017 30.03 846 24.98 12.8 55 92 11.5 52.6
00:30 1017 30.03 846 24.98 12.7 54.9 92 11.5 52.7
00:35 1017 30.03 846 24.98 12.6 54.8 92 11.5 52.6
00:40 1017 30.03 846 24.98 12.7 54.8 92 11.4 52.6
00:45 1017 30.03 846 24.98 12.7 54.8 92 11.4 52.5
00:50 1017 30.03 846 24.98 12.7 54.9 92 11.4 52.5
00:55 1017 30.03 846 24.98 12.7 54.9 92 11.5 52.6
01:00 1017 30.03 846 24.98 12.7 54.9 91 11.3 52.3
01:05 1017 30.03 846 24.98 12.8 55 91 11.3 52.3
01:10 1017 30.03 846 24.98 12.8 55 91 11.4 52.5
01:15 1017 30.03 846 24.98 12.8 55 90 11.2 52.2
01:20 1017 30.03 846 24.98 12.8 55.1 90 11.2 52.1
01:25 1017 30.03 847 25.01 12.9 55.2 90 11.2 52.2
01:30 1017 30.03 847 25.01 12.9 55.2 90 11.3 52.3
01:35 1017 30.03 847 25.01 12.9 55.2 90 11.3 52.3
01:40 1017 30.03 847 25.01 12.9 55.2 89 11.1 52.1
01:45 1017 30.03 847 25.01 12.9 55.2 89 11.1 52
01:50 1017 30.03 847 25.01 13 55.3 90 11.4 52.5
01:55 1018 30.06 847 25.01 12.9 55.3 90 11.4 52.5
02:00 1018 30.06 847 25.01 12.9 55.2 90 11.3 52.4
02:05 1018 30.06 847 25.01 13 55.3 90 11.3 52.4
02:10 1018 30.06 847 25.01 13 55.4 90 11.3 52.4
02:15 1018 30.06 847 25.01 13.1 55.5 87 11 51.9
02:20 1018 30.06 847 25.01 13.1 55.6 87 11.1 51.9
02:25 1018 30.06 847 25.01 13.1 55.6 88 11.2 52.1
02:30 1018 30.06 847 25.01 13.2 55.7 88 11.2 52.1
02:35 1018 30.06 847 25.01 13 55.5 89 11.3 52.3
02:40 1018 30.06 847 25.01 12.9 55.1 90 11.3 52.3
02:45 1018 30.06 847 25.01 12.8 55 91 11.3 52.3
02:50 1018 30.06 847 25.01 12.7 54.9 92 11.4 52.6
02:55 1018 30.06 847 25.01 12.6 54.7 92 11.3 52.3
03:00 1018 30.06 847 25.01 12.6 54.8 90 11 51.8
03:05 1018 30.06 847 25.01 12.8 55.1 90 11.2 52.2
03:10 1018 30.06 847 25.01 12.7 54.9 91 11.3 52.4
03:15 1018 30.06 847 25.01 12.6 54.7 92 11.3 52.3
03:20 1018 30.06 847 25.01 12.6 54.6 92 11.3 52.4
03:25 1018 30.06 847 25.01 12.5 54.4 92 11.3 52.3
03:30 1018 30.06 847 25.01 12.5 54.4 92 11.2 52.2
03:35 1018 30.06 847 25.01 12.5 54.5 91 11.1 52
03:40 1018 30.06 847 25.01 12.6 54.6 90 11 51.8
03:45 1018 30.06 847 25.01 12.6 54.7 90 11 51.9
03:50 1018 30.06 847 25.01 12.6 54.7 90 11 51.9
03:55 1018 30.06 847 25.01 12.6 54.7 90 10.9 51.7
04:00 1018 30.06 847 25.01 12.7 54.8 89 10.9 51.6
04:05 1018 30.06 847 25.01 12.7 54.9 89 10.9 51.7
04:10 1018 30.06 847 25.01 12.6 54.7 90 11 51.8
04:15 1018 30.06 847 25.01 12.5 54.4 90 10.9 51.7
04:20 1018 30.06 847 25.01 12.5 54.4 90 10.9 51.6
04:25 1018 30.06 847 25.01 12.4 54.3 91 10.9 51.7
04:30 1018 30.06 847 25.01 12.4 54.2 90 10.7 51.3
04:35 1018 30.06 847 25.01 12.4 54.3 90 10.9 51.5
04:40 1018 30.06 847 25.01 12.4 54.3 90 10.7 51.3
04:45 1018 30.06 847 25.01 12.5 54.4 89 10.7 51.2
04:50 1018 30.06 848 25.04 12.5 54.6 88 10.7 51.2
04:55 1018 30.06 848 25.04 12.7 54.8 87 10.6 51.1
05:00 1018 30.06 848 25.04 12.6 54.8 88 10.7 51.3
05:05 1018 30.06 848 25.04 12.6 54.6 88 10.6 51
05:10 1018 30.06 848 25.04 12.5 54.6 88 10.7 51.2
05:15 1018 30.06 848 25.04 12.5 54.5 88 10.5 50.9
05:20 1019 30.09 848 25.04 12.5 54.5 89 10.7 51.2
05:25 1019 30.09 848 25.04 12.4 54.4 90 10.8 51.4
05:30 1019 30.09 848 25.04 12.4 54.4 89 10.7 51.2
05:35 1019 30.09 848 25.04 12.4 54.4 89 10.7 51.3
05:40 1019 30.09 848 25.04 12.4 54.2 89 10.7 51.2
05:45 1019 30.09 848 25.04 12.3 54.2 90 10.7 51.3
05:50 1019 30.09 848 25.04 12.3 54.2 89 10.6 51.1
05:55 1019 30.09 848 25.04 12.3 54.2 89 10.5 51
06:00 1019 30.09 848 25.04 12.4 54.2 89 10.6 51
06:05 1019 30.09 848 25.04 12.5 54.4 87 10.3 50.6
06:10 1019 30.09 848 25.04 12.6 54.7 87 10.5 50.8
06:15 1019 30.09 848 25.04 12.6 54.7 87 10.4 50.8
06:20 1019 30.09 848 25.04 12.6 54.6 88 10.6 51.1
06:25 1019 30.09 848 25.04 12.5 54.4 88 10.5 51
06:30 1019 30.09 848 25.04 12.4 54.3 89 10.6 51.1
06:35 1019 30.09 848 25.04 12.5 54.5 89 10.7 51.3
06:40 1019 30.09 848 25.04 12.6 54.7 89 10.8 51.5
06:45 1019 30.09 849 25.07 12.7 54.9 89 10.9 51.6
06:50 1019 30.09 849 25.07 12.8 55.1 89 11 51.8
06:55 1019 30.09 848 25.04 12.7 54.9 89 10.9 51.7
07:00 1019 30.09 849 25.07 12.6 54.7 90 10.9 51.7
07:05 1019 30.09 849 25.07 12.5 54.5 90 10.9 51.7
07:10 1020 30.12 849 25.07 12.4 54.3 90 10.8 51.5
07:15 1020 30.12 849 25.07 12.6 54.6 89 10.8 51.5
07:20 1020 30.12 849 25.07 12.7 54.8 90 11 51.9
07:25 1020 30.12 849 25.07 12.7 54.8 88 10.8 51.4
07:30 1020 30.12 849 25.07 12.8 55 88 10.8 51.4
07:35 1020 30.12 849 25.07 12.8 55.1 87 10.7 51.3
07:40 1020 30.12 849 25.07 13 55.3 86 10.7 51.2
07:45 1020 30.12 849 25.07 13 55.5 86 10.8 51.4
07:50 1020 30.12 849 25.07 13 55.5 86 10.8 51.4
07:55 1020 30.12 849 25.07 13.1 55.5 86 10.7 51.3
08:00 1020 30.12 849 25.07 13.2 55.7 85 10.8 51.4
08:05 1020 30.12 849 25.07 13.3 56 85 10.9 51.6
08:10 1020 30.12 849 25.07 13.5 56.3 84 11 51.7
08:15 1020 30.12 850 25.1 13.6 56.4 85 11 51.8
08:20 1020 30.12 850 25.1 13.6 56.5 85 11.1 52
08:25 1021 30.15 850 25.1 13.8 56.8 85 11.3 52.4
08:30 1021 30.15 850 25.1 14 57.1 84 11.4 52.5
08:35 1021 30.15 850 25.1 14.2 57.6 84 11.5 52.8
08:40 1021 30.15 850 25.1 14.2 57.6 84 11.6 52.9
08:45 1021 30.15 850 25.1 14.5 58.1 82 11.5 52.8
08:50 1021 30.15 850 25.1 14.7 58.4 81 11.5 52.7
08:55 1021 30.15 850 25.1 15.1 59.2 79 11.5 52.7
09:00 1021 30.15 850 25.1 15.9 60.5 75 11.5 52.8
09:05 1021 30.15 850 25.1 16.1 60.9 75 11.7 53.1
09:10 1021 30.15 850 25.1 15.9 60.6 75 11.5 52.7
09:15 1021 30.15 850 25.1 16.3 61.3 69 10.6 51
09:20 1021 30.15 850 25.1 16.5 61.6 62 9.4 48.8
09:25 1021 30.15 850 25.1 17 62.5 63 9.9 49.8
09:30 1021 30.15 850 25.1 17.2 63 65 10.6 51.1
09:35 1021 30.15 850 25.1 17.9 64.2 61 10.3 50.5
09:40 1021 30.15 850 25.1 17.9 64.2 63 10.9 51.7
09:45 1021 30.15 850 25.1 17.5 63.5 65 10.9 51.7
09:50 1021 30.15 850 25.1 17.4 63.4 64 10.6 51
09:55 1021 30.15 850 25.1 18.3 64.9 58 9.9 49.8
10:00 1021 30.15 850 25.1 17.2 62.9 64 10.3 50.6
10:05 1021 30.15 850 25.1 17.6 63.7 56 8.9 48
10:10 1021 30.15 851 25.13 18.5 65.3 56 9.7 49.4
10:15 1021 30.15 851 25.13 17.4 63.3 58 9.1 48.3
10:20 1021 30.15 851 25.13 18 64.4 55 8.8 47.9
10:25 1021 30.15 850 25.1 18.1 64.6 53 8.6 47.4
10:30 1021 30.15 850 25.1 18.8 65.9 52 8.8 47.8
10:35 1021 30.15 851 25.13 19.6 67.2 50 8.9 48
10:40 1021 30.15 851 25.13 19.7 67.5 46 8 46.4
10:45 1021 30.15 851 25.13 19.6 67.3 47 8.2 46.7
10:50 1021 30.15 851 25.13 19.8 67.6 46 7.9 46.2
10:55 1021 30.15 851 25.13 19.5 67 49 8.5 47.2
11:00 1021 30.15 851 25.13 18.6 65.4 49 7.9 46.2
11:05 1021 30.15 851 25.13 19.1 66.4 50 8.5 47.2
11:10 1021 30.15 851 25.13 19.3 66.7 47 7.9 46.2
11:15 1021 30.15 851 25.13 18.7 65.7 45 6.5 43.8
11:20 1022 30.18 851 25.13 19.3 66.7 44 6.9 44.3
11:25 1021 30.15 851 25.13 20 67.9 43 7.2 44.9
11:30 1021 30.15 851 25.13 20.1 68.2 42 6.9 44.4
11:35 1021 30.15 851 25.13 19.3 66.7 35 3.7 38.7
11:40 1021 30.15 851 25.13 20.4 68.7 38 5.7 42.3
11:45 1021 30.15 851 25.13 20.7 69.2 33 4.2 39.5
11:50 1021 30.15 851 25.13 20.4 68.7 34 4.2 39.5
11:55 1021 30.15 851 25.13 20.6 69 34 4.3 39.7
12:00 1021 30.15 851 25.13 19.9 67.7 35 4.3 39.7
12:05 1021 30.15 851 25.13 20.4 68.7 35 4.4 40
12:10 1021 30.15 851 25.13 20 67.9 35 4.2 39.6
12:15 1021 30.15 851 25.13 20.6 69 34 4.3 39.8
12:20 1021 30.15 851 25.13 20 67.9 35 4.2 39.5
12:25 1021 30.15 851 25.13 20.3 68.5 35 4.3 39.8
12:30 1021 30.15 851 25.13 20.9 69.5 33 4.3 39.7
12:35 1021 30.15 851 25.13 20.5 68.8 37 5.4 41.7
12:40 1021 30.15 850 25.1 20.4 68.6 35 4.4 40
12:45 1021 30.15 850 25.1 21.3 70.4 33 4.5 40.1
12:50 1021 30.15 850 25.1 21.3 70.3 36 6 42.7
12:55 1021 30.15 850 25.1 21.1 69.9 35 5.1 41.2
13:00 1021 30.15 850 25.1 21.2 70.2 34 4.8 40.6
13:05 1021 30.15 850 25.1 21.2 70.2 35 5.3 41.5
13:10 1021 30.15 850 25.1 20.5 68.8 36 4.9 40.8
13:15 1021 30.15 850 25.1 20.5 69 36 5.2 41.4
13:20 1021 30.15 850 25.1 21.3 70.3 34 4.9 40.8
13:25 1021 30.15 850 25.1 22.1 71.8 34 5.5 41.9
13:30 1021 30.15 850 25.1 22 71.6 34 5.6 42.1
13:35 1021 30.15 850 25.1 22.7 72.9 32 5.4 41.8
13:40 1021 30.15 850 25.1 22.2 72 34 5.8 42.4
13:45 1021 30.15 850 25.1 22.6 72.7 32 5.1 41.1
13:50 1021 30.15 850 25.1 22.5 72.6 34 6.2 43.2
13:55 1021 30.15 850 25.1 22.6 72.6 34 6 42.7
14:00 1021 30.15 850 25.1 21.8 71.2 33 5.1 41.1
14:05 1021 30.15 850 25.1 22.1 71.9 34 5.6 42.1
14:10 1021 30.15 850 25.1 21.9 71.4 32 4.8 40.6
14:15 1021 30.15 850 25.1 22.3 72.1 33 5.5 41.9
14:20 1021 30.15 850 25.1 21.9 71.4 34 5.3 41.6
14:25 1021 30.15 850 25.1 22.8 73.1 31 5.2 41.4
14:30 1021 30.15 850 25.1 22.8 73.1 30 4.6 40.3
14:35 1021 30.15 850 25.1 21.9 71.4 32 4.7 40.5
14:40 1021 30.15 850 25.1 22.6 72.7 29 4.1 39.3
14:45 1021 30.15 850 25.1 23 73.4 30 4.7 40.5
14:50 1021 30.15 850 25.1 22.8 73 28 3.6 38.5
14:55 1021 30.15 850 25.1 22.9 73.2 28 3.4 38.2
15:00 1021 30.15 850 25.1 22.6 72.7 28 3.4 38.2
15:05 1021 30.15 850 25.1 22.8 73.1 30 4.6 40.2
15:10 1021 30.15 850 25.1 22.6 72.6 30 4.2 39.5
15:15 1021 30.15 850 25.1 22.6 72.7 29 4.1 39.4
15:20 1021 30.15 850 25.1 23.1 73.6 27 3.3 38
15:25 1021 30.15 850 25.1 22.2 72 28 3.1 37.7
15:30 1021 30.15 850 25.1 22.5 72.5 27 2.8 37
15:35 1021 30.15 850 25.1 22.8 73.1 27 2.9 37.2
15:40 1021 30.15 850 25.1 22.5 72.5 28 3.1 37.6
15:45 1021 30.15 850 25.1 22.8 73 27 2.8 37
15:50 1021 30.15 850 25.1 23.1 73.7 27 3.1 37.6
15:55 1021 30.15 850 25.1 23.8 74.8 25 2.8 37
16:00 1021 30.15 850 25.1 22.7 72.9 27 2.7 36.9
16:05 1021 30.15 850 25.1 22.1 71.8 27 2.4 36.3
16:10 1021 30.15 850 25.1 21.9 71.5 27 2.3 36.1
16:15 1020 30.12 850 25.1 22.5 72.4 26 2 35.6
16:20 1020 30.12 850 25.1 22.3 72.2 27 2.4 36.3
16:25 1020 30.12 850 25.1 23.5 74.3 26 3 37.5
16:30 1020 30.12 850 25.1 23.5 74.3 25 2.7 36.9
16:35 1020 30.12 850 25.1 23.6 74.5 26 2.9 37.3
16:40 1020 30.12 850 25.1 23.8 74.9 25 3 37.4
16:45 1020 30.12 850 25.1 22.9 73.3 26 2.7 36.9
16:50 1020 30.12 850 25.1 23.9 75 24 2.5 36.6
16:55 1020 30.12 850 25.1 24.1 75.4 25 3.1 37.5
17:00 1020 30.12 850 25.1 24.1 75.3 25 2.9 37.2
17:05 1020 30.12 849 25.07 24.4 75.9 24 2.7 36.8
17:10 1020 30.12 849 25.07 24.6 76.3 25 3.3 37.9
17:15 1020 30.12 849 25.07 24.4 76 25 3.4 38.1
17:20 1020 30.12 849 25.07 23.9 75 27 4 39.2
17:25 1020 30.12 849 25.07 22.9 73.2 27 3.3 38
17:30 1020 30.12 849 25.07 22.6 72.7 27 3.1 37.6
17:35 1020 30.12 849 25.07 22.7 72.9 27 2.7 36.9
17:40 1020 30.12 849 25.07 22.9 73.2 26 2.8 37.1
17:45 1020 30.12 849 25.07 23 73.3 27 3.3 37.9
17:50 1020 30.12 849 25.07 23.7 74.6 27 3.7 38.7
17:55 1020 30.12 849 25.07 23.1 73.6 26 2.8 37
18:00 1020 30.12 849 25.07 23 73.4 25 2.3 36.1
18:05 1020 30.12 849 25.07 23.4 74.2 26 3 37.4
18:10 1020 30.12 849 25.07 23.8 74.8 26 3.1 37.7
18:15 1020 30.12 849 25.07 23 73.4 28 3.7 38.6
18:20 1020 30.12 849 25.07 23.1 73.5 26 2.7 36.9
18:25 1020 30.12 849 25.07 23.2 73.8 27 3.3 38
18:30 1020 30.12 849 25.07 22.8 73 28 3.4 38.1
18:35 1020 30.12 849 25.07 22.4 72.3 30 4 39.3
18:40 1020 30.12 849 25.07 22.1 71.9 29 3.4 38.1
18:45 1020 30.12 849 25.07 22.2 71.9 29 3.5 38.2
18:50 1020 30.12 849 25.07 22.1 71.8 29 3.4 38.2
18:55 1020 30.12 849 25.07 22 71.6 29 3.2 37.8
19:00 1020 30.12 849 25.07 21.9 71.5 30 3.9 39
19:05 1020 30.12 849 25.07 21.9 71.4 30 3.6 38.4
19:10 1020 30.12 849 25.07 22 71.7 29 3.4 38.1
19:15 1020 30.12 849 25.07 22 71.5 29 3.4 38.1
19:20 1020 30.12 849 25.07 21.8 71.3 30 3.7 38.6
19:25 1020 30.12 849 25.07 21.7 71 30 3.6 38.5
19:30 1020 30.12 849 25.07 21.6 70.8 29 3.1 37.6
19:35 1020 30.12 849 25.07 21.6 70.8 29 3.2 37.7
19:40 1020 30.12 849 25.07 21.5 70.8 31 3.8 38.9
19:45 1020 30.12 849 25.07 21.4 70.5 33 4.5 40.1
19:50 1020 30.12 849 25.07 21.2 70.2 33 4.7 40.4
19:55 1020 30.12 849 25.07 21 69.8 34 4.7 40.5
20:00 1020 30.12 849 25.07 20.9 69.5 35 5.2 41.4
20:05 1020 30.12 849 25.07 20.6 69.1 36 5.3 41.6
20:10 1020 30.12 849 25.07 20.2 68.4 40 6.5 43.7
20:15 1020 30.12 849 25.07 19.8 67.6 45 7.6 45.6
20:20 1020 30.12 849 25.07 19.4 67 47 8 46.3
20:25 1020 30.12 849 25.07 18.8 65.9 54 9.3 48.8
20:30 1020 30.12 849 25.07 18.2 64.7 51 8.1 46.5
20:35 1020 30.12 849 25.07 17.8 64 54 8.5 47.4
20:40 1020 30.12 849 25.07 17.2 63 57 8.7 47.6
20:45 1020 30.12 849 25.07 16.8 62.2 58 8.5 47.3
20:50 1020 30.12 849 25.07 16.3 61.4 58 8 46.5
20:55 1020 30.12 849 25.07 16.1 60.9 55 7.1 44.9
21:00 1020 30.12 850 25.1 16.5 61.6 51 6.5 43.7
21:05 1020 30.12 850 25.1 17.1 62.7 51 6.9 44.4
21:10 1020 30.12 850 25.1 16.8 62.2 58 8.6 47.4
21:15 1020 30.12 850 25.1 15.9 60.7 56 7.3 45.1
21:20 1020 30.12 850 25.1 15.9 60.5 56 7.1 44.8
21:25 1020 30.12 850 25.1 15.8 60.5 57 7.4 45.4
21:30 1021 30.15 850 25.1 15.7 60.3 57 7.2 45
21:35 1021 30.15 850 25.1 15.6 60 57 7.2 45
21:40 1021 30.15 850 25.1 15.6 60.1 56 6.9 44.5
21:45 1021 30.15 850 25.1 15.6 60.2 56 6.9 44.4
21:50 1021 30.15 850 25.1 15.6 60.2 55 6.8 44.3
21:55 1021 30.15 850 25.1 15.6 60.1 55 6.8 44.3
22:00 1021 30.15 850 25.1 15.6 60.1 56 6.9 44.4
22:05 1021 30.15 850 25.1 15.5 59.8 56 6.7 44.1
22:10 1021 30.15 850 25.1 15.4 59.8 57 7 44.7
22:15 1021 30.15 850 25.1 15.1 59.2 58 7 44.6
22:20 1021 30.15 850 25.1 14.9 58.7 59 6.9 44.5
22:25 1021 30.15 850 25.1 14.9 58.8 57 6.5 43.7
22:30 1021 30.15 850 25.1 14.9 58.8 57 6.6 43.9
22:35 1021 30.15 850 25.1 14.8 58.6 58 6.8 44.2
22:40 1021 30.15 850 25.1 14.6 58.2 58 6.6 43.8
22:45 1021 30.15 850 25.1 14.5 58.1 58 6.5 43.6
22:50 1021 30.15 850 25.1 14.4 57.9 59 6.6 43.9
22:55 1021 30.15 850 25.1 14.4 57.8 58 6.4 43.5
23:00 1021 30.15 850 25.1 14.3 57.7 60 6.7 44.1
23:05 1021 30.15 850 25.1 14 57.2 61 6.6 44
23:10 1020 30.12 850 25.1 13.9 56.9 60 6.3 43.4
23:15 1020 30.12 850 25.1 14 57.1 59 6.1 43.1
23:20 1020 30.12 850 25.1 14.1 57.4 59 6.2 43.2
23:25 1020 30.12 850 25.1 14 57.1 59 6.1 43
23:30 1020 30.12 850 25.1 13.8 56.9 60 6.3 43.3
23:35 1020 30.12 850 25.1 13.6 56.4 60 6.1 43
23:40 1020 30.12 850 25.1 13.5 56.2 60 5.9 42.7
23:45 1020 30.12 850 25.1 13.4 56.1 59 5.7 42.3
23:50 1021 30.15 850 25.1 13.8 56.8 55 4.9 40.8
23:55 1021 30.15 850 25.1 14.3 57.7 53 5 40.9
24:00 1021 30.15 850 25.1 14.7 58.5 53 5.3 41.5